Time;durP1;ratioP1;P1;durP2;ratioP2;P2;SDS_P1;SDS_P2;PMS_P1;PMS_P2;Temp;Humidity;BMP_temperature;BMP_pressure;BME280_temperature;BME280_humidity;BME280_pressure;Samples;Min_cycle;Max_cycle;Signal;HPM_P1;HPM_P2
2022/03/11 00:00:28;;;;;;;14.70;7.95;;;10.60;33.10;;;;;;5020760;28;20057;-42
2022/03/11 00:02:56;;;;;;;15.85;7.93;;;10.50;33.10;;;;;;5022144;28;20053;-42
2022/03/11 00:05:23;;;;;;;15.77;8.40;;;10.50;33.00;;;;;;5018568;28;20064;-42
2022/03/11 00:07:51;;;;;;;14.10;7.72;;;10.50;33.10;;;;;;5019349;28;20060;-43
2022/03/11 00:10:18;;;;;;;17.98;7.95;;;10.50;33.10;;;;;;5018303;28;20049;-43
2022/03/11 00:12:46;;;;;;;17.48;8.32;;;10.50;33.30;;;;;;5020403;28;20060;-45
2022/03/11 00:15:14;;;;;;;13.15;7.43;;;10.50;33.20;;;;;;5017804;28;20052;-43
2022/03/11 00:17:43;;;;;;;15.82;7.97;;;10.50;33.20;;;;;;5021780;28;20060;-46
2022/03/11 00:20:11;;;;;;;14.82;7.82;;;10.40;33.20;;;;;;5018340;28;20060;-43
2022/03/11 00:22:39;;;;;;;13.35;7.70;;;10.40;33.20;;;;;;5022362;28;20069;-43
2022/03/11 00:25:09;;;;;;;14.65;7.43;;;10.40;33.30;;;;;;5018613;28;20072;-43
2022/03/11 00:27:36;;;;;;;15.75;8.35;;;10.40;33.30;;;;;;5020562;28;20053;-42
2022/03/11 00:30:06;;;;;;;15.15;8.25;;;10.40;33.40;;;;;;5018854;28;20413;-42
2022/03/11 00:32:33;;;;;;;13.73;8.05;;;10.40;33.40;;;;;;5018932;28;20064;-42
2022/03/11 00:35:04;;;;;;;12.77;7.40;;;10.40;33.50;;;;;;5018207;28;21124;-42
2022/03/11 00:37:32;;;;;;;15.95;8.18;;;10.40;33.60;;;;;;5022405;28;20050;-43
2022/03/11 00:39:59;;;;;;;16.35;7.53;;;10.40;33.60;;;;;;5022413;28;20050;-42
2022/03/11 00:42:28;;;;;;;15.30;7.35;;;10.40;33.60;;;;;;5019794;28;20057;-45
2022/03/11 00:44:55;;;;;;;15.65;8.18;;;10.30;33.60;;;;;;5017170;28;20478;-43
2022/03/11 00:47:23;;;;;;;15.00;8.32;;;10.30;33.60;;;;;;5020247;28;20064;-43
2022/03/11 00:49:50;;;;;;;14.55;7.80;;;10.30;33.60;;;;;;5020773;28;20060;-44
2022/03/11 00:52:19;;;;;;;13.88;7.57;;;10.30;33.70;;;;;;5020449;28;20050;-43
2022/03/11 00:54:47;;;;;;;13.98;7.63;;;10.30;33.80;;;;;;5019422;28;20072;-43
2022/03/11 00:57:16;;;;;;;13.63;7.20;;;10.20;33.80;;;;;;5022485;28;20076;-43
2022/03/11 00:59:43;;;;;;;17.67;8.05;;;10.20;33.80;;;;;;5019828;28;20064;-43
2022/03/11 01:02:11;;;;;;;16.60;8.18;;;10.30;33.90;;;;;;5018973;28;20049;-43
2022/03/11 01:04:38;;;;;;;15.02;7.97;;;10.20;33.90;;;;;;5014898;28;20045;-43
2022/03/11 01:07:07;;;;;;;16.63;7.95;;;10.30;34.00;;;;;;5021025;28;20060;-43
2022/03/11 01:09:36;;;;;;;16.23;7.82;;;10.20;34.10;;;;;;5018808;28;20052;-44
2022/03/11 01:12:04;;;;;;;16.52;6.93;;;10.20;34.10;;;;;;5022054;28;20053;-42
2022/03/11 01:14:31;;;;;;;15.15;7.85;;;10.20;34.10;;;;;;5014945;28;20053;-43
2022/03/11 01:16:59;;;;;;;18.02;8.38;;;10.20;34.20;;;;;;5019894;28;20049;-42
2022/03/11 01:19:26;;;;;;;14.57;7.85;;;10.10;34.20;;;;;;5016852;28;20508;-43
2022/03/11 01:21:54;;;;;;;15.50;8.07;;;10.10;34.30;;;;;;5019604;28;20049;-43
2022/03/11 01:24:22;;;;;;;18.42;7.60;;;10.10;34.40;;;;;;5018401;28;20521;-44
2022/03/11 01:26:51;;;;;;;12.63;7.38;;;10.10;34.60;;;;;;5020152;28;20060;-43
2022/03/11 01:29:18;;;;;;;17.27;8.57;;;10.00;34.50;;;;;;5018891;28;20048;-42
2022/03/11 01:31:46;;;;;;;14.32;8.18;;;10.00;34.60;;;;;;5018169;28;20068;-43
2022/03/11 01:34:14;;;;;;;17.88;8.73;;;10.00;34.60;;;;;;5017251;28;20069;-42
2022/03/11 01:36:41;;;;;;;21.45;8.30;;;10.00;34.70;;;;;;5020381;28;20494;-43
2022/03/11 01:39:09;;;;;;;15.68;8.18;;;10.00;35.00;;;;;;5020212;28;20056;-42
2022/03/11 01:41:37;;;;;;;16.45;8.68;;;9.90;34.90;;;;;;5019885;28;20060;-42
2022/03/11 01:44:08;;;;;;;16.45;8.50;;;10.00;34.90;;;;;;5016116;28;20057;-42
2022/03/11 01:46:36;;;;;;;15.80;8.02;;;9.90;34.90;;;;;;5018148;28;20064;-45
2022/03/11 01:49:06;;;;;;;15.48;8.55;;;9.90;35.40;;;;;;5018077;28;20068;-43
2022/03/11 01:51:37;;;;;;;18.52;9.00;;;9.90;35.10;;;;;;5019050;28;20080;-42
2022/03/11 01:54:05;;;;;;;17.27;8.70;;;9.90;35.20;;;;;;5018779;28;20064;-43
2022/03/11 01:56:34;;;;;;;16.33;8.18;;;9.90;35.40;;;;;;5021771;28;20079;-44
2022/03/11 01:59:02;;;;;;;15.40;8.30;;;9.80;35.40;;;;;;5021888;28;20053;-48
2022/03/11 02:01:31;;;;;;;18.20;8.52;;;9.80;35.40;;;;;;5021912;28;20489;-43
2022/03/11 02:03:58;;;;;;;22.75;9.48;;;9.80;35.50;;;;;;5020571;28;20527;-42
2022/03/11 02:06:27;;;;;;;22.58;9.00;;;9.80;35.60;;;;;;5019849;28;20060;-44
2022/03/11 02:08:55;;;;;;;15.32;8.48;;;9.70;35.90;;;;;;5024218;28;20049;-42
2022/03/11 02:11:23;;;;;;;18.05;9.48;;;9.70;35.70;;;;;;5023925;28;20402;-43
2022/03/11 02:13:52;;;;;;;19.63;8.30;;;9.70;35.80;;;;;;5021022;28;20417;-43
2022/03/11 02:16:21;;;;;;;18.73;9.65;;;9.70;35.80;;;;;;5022311;28;20494;-42
2022/03/11 02:18:51;;;;;;;20.38;9.88;;;9.70;36.00;;;;;;5017800;28;20413;-43
2022/03/11 02:21:20;;;;;;;17.83;8.50;;;9.60;35.90;;;;;;5022097;28;20068;-44
2022/03/11 02:23:50;;;;;;;17.45;9.07;;;9.60;35.90;;;;;;5021985;28;20058;-44
2022/03/11 02:26:19;;;;;;;16.40;9.15;;;9.60;36.00;;;;;;5023506;28;20053;-43
2022/03/11 02:28:48;;;;;;;18.55;8.80;;;9.60;36.10;;;;;;5023802;28;21716;-43
2022/03/11 02:31:16;;;;;;;20.73;9.40;;;9.60;36.20;;;;;;5023721;28;20386;-43
2022/03/11 02:33:43;;;;;;;16.08;8.32;;;9.50;36.20;;;;;;5019317;28;20424;-42
2022/03/11 02:36:11;;;;;;;16.40;8.55;;;9.50;36.20;;;;;;5020347;28;20061;-42
2022/03/11 02:38:39;;;;;;;18.58;9.73;;;9.50;36.20;;;;;;5017497;28;20049;-43
2022/03/11 02:41:08;;;;;;;16.20;8.35;;;9.50;36.30;;;;;;5022308;28;20045;-42
2022/03/11 02:43:36;;;;;;;22.52;9.02;;;9.50;36.30;;;;;;5019523;28;20060;-42
2022/03/11 02:46:04;;;;;;;18.52;8.82;;;9.50;36.50;;;;;;5021861;28;20053;-42
2022/03/11 02:48:31;;;;;;;22.35;10.00;;;9.40;36.50;;;;;;5020467;28;20425;-46
2022/03/11 02:50:59;;;;;;;18.67;9.10;;;9.40;36.50;;;;;;5022260;28;20521;-42
2022/03/11 02:53:27;;;;;;;18.15;9.77;;;9.40;36.60;;;;;;5022363;28;20053;-43
2022/03/11 02:55:54;;;;;;;18.52;9.70;;;9.40;36.70;;;;;;5019294;28;20057;-42
2022/03/11 02:58:23;;;;;;;19.98;9.20;;;9.40;36.90;;;;;;5023919;28;20053;-43
2022/03/11 03:00:51;;;;;;;20.88;9.48;;;9.40;36.90;;;;;;5021204;28;20057;-42
2022/03/11 03:03:19;;;;;;;21.33;9.80;;;9.30;36.90;;;;;;5021117;28;20049;-43
2022/03/11 03:05:46;;;;;;;23.05;10.45;;;9.30;37.00;;;;;;5018698;28;20664;-42
2022/03/11 03:08:14;;;;;;;16.85;9.95;;;9.30;37.30;;;;;;5018680;28;20064;-42
2022/03/11 03:10:41;;;;;;;17.75;9.43;;;9.20;37.10;;;;;;5024052;28;20516;-42
2022/03/11 03:13:09;;;;;;;19.13;10.27;;;9.20;37.20;;;;;;5019609;28;20061;-45
2022/03/11 03:15:38;;;;;;;16.50;9.55;;;9.20;37.30;;;;;;5019261;28;20453;-43
2022/03/11 03:18:05;;;;;;;19.80;9.60;;;9.20;37.40;;;;;;5020086;28;20056;-44
2022/03/11 03:20:33;;;;;;;20.17;10.43;;;9.10;37.40;;;;;;5019434;28;20049;-42
2022/03/11 03:23:00;;;;;;;20.63;10.10;;;9.10;37.40;;;;;;5024043;28;20072;-43
2022/03/11 03:25:28;;;;;;;19.38;9.95;;;9.10;37.40;;;;;;5019978;28;20053;-45
2022/03/11 03:27:55;;;;;;;16.10;8.80;;;9.10;37.40;;;;;;5020167;28;20064;-43
2022/03/11 03:30:23;;;;;;;19.70;9.00;;;9.10;37.40;;;;;;5019233;28;20045;-42
2022/03/11 03:32:52;;;;;;;19.00;9.80;;;9.10;37.40;;;;;;5022056;28;20393;-43
2022/03/11 03:35:19;;;;;;;22.63;10.45;;;9.10;37.50;;;;;;5017315;28;20049;-42
2022/03/11 03:37:47;;;;;;;23.38;10.40;;;9.00;37.60;;;;;;5023270;28;20057;-43
2022/03/11 03:40:15;;;;;;;21.63;10.50;;;9.00;37.70;;;;;;5022328;28;20401;-43
2022/03/11 03:42:46;;;;;;;24.38;10.60;;;9.00;37.70;;;;;;5019224;28;20498;-43
2022/03/11 03:45:14;;;;;;;24.17;10.85;;;9.00;37.80;;;;;;5019930;28;20045;-43
2022/03/11 03:47:42;;;;;;;18.95;10.65;;;9.00;37.70;;;;;;5019542;28;20496;-44
2022/03/11 03:50:11;;;;;;;19.20;10.95;;;8.90;37.80;;;;;;5019056;28;20045;-42
2022/03/11 03:52:39;;;;;;;21.08;10.52;;;8.90;37.80;;;;;;5019123;28;20057;-43
2022/03/11 03:55:07;;;;;;;18.83;9.73;;;8.90;37.80;;;;;;5020010;28;20060;-42
2022/03/11 03:57:35;;;;;;;20.95;11.00;;;8.90;37.90;;;;;;5021735;28;20060;-43
2022/03/11 04:00:03;;;;;;;23.75;11.63;;;8.90;37.90;;;;;;5021004;28;20049;-44
2022/03/11 04:02:32;;;;;;;23.75;10.48;;;8.80;38.10;;;;;;5023248;28;20076;-42
2022/03/11 04:04:59;;;;;;;20.67;10.35;;;8.80;38.10;;;;;;5017711;28;20064;-42
2022/03/11 04:07:28;;;;;;;20.77;10.93;;;8.80;38.10;;;;;;5019751;28;20076;-42
2022/03/11 04:09:55;;;;;;;21.52;10.52;;;8.80;38.20;;;;;;5020870;28;20061;-42
2022/03/11 04:12:23;;;;;;;24.85;11.10;;;8.70;38.20;;;;;;5021219;28;20588;-42
2022/03/11 04:14:50;;;;;;;19.10;10.88;;;8.70;38.20;;;;;;5019667;28;21220;-42
2022/03/11 04:17:18;;;;;;;23.42;12.15;;;8.70;38.30;;;;;;5020271;28;20053;-42
2022/03/11 04:19:45;;;;;;;24.45;11.95;;;8.70;38.30;;;;;;5019103;28;20057;-42
2022/03/11 04:22:13;;;;;;;24.83;12.18;;;8.70;38.40;;;;;;5021184;28;20474;-42
2022/03/11 04:24:42;;;;;;;26.85;12.55;;;8.60;38.60;;;;;;5016918;28;20501;-44
2022/03/11 04:27:10;;;;;;;23.95;13.02;;;8.60;38.60;;;;;;5018071;28;20505;-42
2022/03/11 04:29:37;;;;;;;26.50;11.85;;;8.60;38.60;;;;;;5022711;28;20060;-42
2022/03/11 04:32:07;;;;;;;24.80;11.70;;;8.60;38.60;;;;;;5018800;28;20064;-43
2022/03/11 04:34:35;;;;;;;26.80;12.13;;;8.50;38.80;;;;;;5017387;28;20076;-44
2022/03/11 04:37:03;;;;;;;25.83;12.82;;;8.50;38.90;;;;;;5020065;28;20057;-43
2022/03/11 04:39:30;;;;;;;24.00;12.57;;;8.50;39.10;;;;;;5022252;28;20489;-42
2022/03/11 04:41:59;;;;;;;23.50;13.05;;;8.50;39.00;;;;;;5019929;28;20474;-42
2022/03/11 04:44:27;;;;;;;28.70;14.18;;;8.40;39.40;;;;;;5018232;28;20502;-43
2022/03/11 04:46:54;;;;;;;27.52;13.70;;;8.40;39.60;;;;;;5020782;28;20065;-42
2022/03/11 04:49:22;;;;;;;27.00;13.30;;;8.40;39.40;;;;;;5017695;28;20465;-42
2022/03/11 04:51:49;;;;;;;21.83;11.90;;;8.30;39.30;;;;;;5017915;28;20053;-42
2022/03/11 04:54:17;;;;;;;48.60;22.48;;;8.30;39.30;;;;;;5017685;28;20069;-43
2022/03/11 04:56:44;;;;;;;36.35;18.65;;;8.30;39.50;;;;;;5022454;28;20053;-42
2022/03/11 04:59:13;;;;;;;29.92;15.43;;;8.30;39.50;;;;;;5016741;28;20064;-46
2022/03/11 05:01:40;;;;;;;31.60;16.33;;;8.30;39.90;;;;;;5021319;28;20049;-42
2022/03/11 05:04:08;;;;;;;28.83;14.35;;;8.20;39.70;;;;;;5017720;28;20060;-42
2022/03/11 05:06:36;;;;;;;27.00;13.13;;;8.20;39.80;;;;;;5021268;28;20052;-42
2022/03/11 05:09:03;;;;;;;29.08;14.48;;;8.20;39.70;;;;;;5019326;28;20501;-42
2022/03/11 05:11:31;;;;;;;27.25;14.40;;;8.20;39.80;;;;;;5018469;28;20069;-42
2022/03/11 05:13:58;;;;;;;25.15;13.38;;;8.20;40.00;;;;;;5018802;28;20060;-42
2022/03/11 05:16:27;;;;;;;26.52;14.57;;;8.20;39.90;;;;;;5016448;28;20608;-43
2022/03/11 05:18:55;;;;;;;29.27;15.30;;;8.20;39.90;;;;;;5015146;28;20053;-42
2022/03/11 05:21:22;;;;;;;28.02;15.20;;;8.10;39.90;;;;;;5022007;28;20054;-42
2022/03/11 05:23:50;;;;;;;27.75;14.25;;;8.10;40.10;;;;;;5020089;28;20524;-46
2022/03/11 05:29:02;;;;;;;;;;;8.10;40.20;;;;;;5019018;28;20050;-42
2022/03/11 05:31:31;;;;;;;38.63;19.30;;;8.10;40.20;;;;;;5022418;28;19936;-42
2022/03/11 05:33:58;;;;;;;33.33;16.88;;;8.10;40.20;;;;;;5024289;28;20469;-42
2022/03/11 05:36:26;;;;;;;29.23;15.43;;;8.10;40.60;;;;;;5024994;28;20424;-42
2022/03/11 05:38:54;;;;;;;27.08;15.50;;;8.00;40.40;;;;;;5025119;28;20440;-42
2022/03/11 05:41:22;;;;;;;30.75;16.75;;;8.00;40.40;;;;;;5026142;28;20054;-42
2022/03/11 05:43:49;;;;;;;30.17;16.13;;;8.00;40.50;;;;;;5022436;28;20053;-42
2022/03/11 05:46:17;;;;;;;30.83;16.17;;;8.00;40.60;;;;;;5022298;28;21663;-42
2022/03/11 05:48:46;;;;;;;30.30;16.60;;;7.90;40.50;;;;;;5022913;28;20492;-42
2022/03/11 05:51:14;;;;;;;30.00;16.05;;;7.90;40.60;;;;;;5023082;28;20513;-43
2022/03/11 05:53:41;;;;;;;30.17;16.75;;;7.80;40.70;;;;;;5025178;28;20060;-42
2022/03/11 05:56:09;;;;;;;29.33;15.80;;;7.80;40.80;;;;;;5014109;28;20631;-42
2022/03/11 05:58:36;;;;;;;29.42;15.50;;;7.80;40.70;;;;;;5019750;28;20058;-41
2022/03/11 06:01:04;;;;;;;35.45;17.88;;;7.80;40.70;;;;;;5019553;28;20057;-42
2022/03/11 06:03:31;;;;;;;34.22;17.50;;;7.70;40.90;;;;;;5020568;28;20057;-44
2022/03/11 06:06:00;;;;;;;34.38;16.65;;;7.70;41.00;;;;;;5023660;28;20258;-43
2022/03/11 06:08:28;;;;;;;33.20;18.33;;;7.70;41.00;;;;;;5024633;28;20060;-42
2022/03/11 06:10:55;;;;;;;34.25;17.42;;;7.70;41.20;;;;;;5024966;28;20065;-42
2022/03/11 06:13:23;;;;;;;34.65;18.60;;;7.60;41.10;;;;;;5022612;28;20513;-44
2022/03/11 06:15:51;;;;;;;38.13;17.13;;;7.60;41.20;;;;;;5022718;28;20053;-43
2022/03/11 06:18:19;;;;;;;32.75;18.13;;;7.60;41.10;;;;;;5019215;28;20064;-42
2022/03/11 06:20:46;;;;;;;33.10;17.33;;;7.60;41.10;;;;;;5023132;28;20059;-42
2022/03/11 06:23:15;;;;;;;37.17;18.25;;;7.50;41.20;;;;;;5025318;28;20494;-42
2022/03/11 06:25:43;;;;;;;44.10;21.55;;;7.50;41.30;;;;;;5024468;28;20056;-43
2022/03/11 06:28:11;;;;;;;32.13;17.95;;;7.50;41.30;;;;;;5024085;28;20049;-42
2022/03/11 06:30:39;;;;;;;34.67;18.52;;;7.50;41.50;;;;;;5017465;28;20053;-43
2022/03/11 06:33:07;;;;;;;30.85;17.10;;;7.50;41.30;;;;;;5024455;28;20053;-43
2022/03/11 06:35:35;;;;;;;30.27;17.52;;;7.50;41.40;;;;;;5021531;28;20049;-42
2022/03/11 06:38:02;;;;;;;33.53;19.08;;;7.50;41.40;;;;;;5024115;28;20068;-42
2022/03/11 06:40:32;;;;;;;33.65;18.67;;;7.50;41.20;;;;;;5024122;28;20050;-44
2022/03/11 06:43:00;;;;;;;33.58;18.45;;;7.60;41.40;;;;;;5023356;28;20061;-43
2022/03/11 06:45:27;;;;;;;31.10;17.33;;;7.50;41.20;;;;;;5021672;28;20064;-42
2022/03/11 06:47:55;;;;;;;34.28;18.60;;;7.60;41.30;;;;;;5024301;28;20062;-42
2022/03/11 06:50:22;;;;;;;39.33;19.65;;;7.60;41.30;;;;;;5019827;28;20049;-43
2022/03/11 06:52:50;;;;;;;35.75;18.23;;;7.60;41.30;;;;;;5024096;28;20068;-42
2022/03/11 06:55:17;;;;;;;29.60;16.85;;;7.60;41.10;;;;;;5022696;28;20395;-42
2022/03/11 06:57:47;;;;;;;35.38;18.85;;;7.60;41.30;;;;;;5021685;28;20061;-42
2022/03/11 07:00:15;;;;;;;33.58;18.90;;;7.60;41.20;;;;;;5017010;28;20084;-43
2022/03/11 07:02:43;;;;;;;35.85;18.92;;;7.60;41.10;;;;;;5020260;28;20053;-42
2022/03/11 07:05:11;;;;;;;38.00;18.88;;;7.60;40.80;;;;;;5021314;28;20088;-42
2022/03/11 07:07:39;;;;;;;32.05;17.83;;;7.70;40.90;;;;;;5023792;28;20510;-42
2022/03/11 07:10:09;;;;;;;34.83;18.80;;;7.70;40.80;;;;;;5023514;28;20046;-42
2022/03/11 07:12:37;;;;;;;37.33;17.40;;;7.70;40.80;;;;;;5022601;28;20076;-42
2022/03/11 07:15:08;;;;;;;35.13;18.02;;;7.70;40.70;;;;;;5015938;28;20378;-42
2022/03/11 07:17:36;;;;;;;33.58;18.30;;;7.70;40.70;;;;;;5023751;28;20064;-42
2022/03/11 07:20:04;;;;;;;34.38;17.67;;;7.80;40.60;;;;;;5017780;28;20408;-42
2022/03/11 07:22:32;;;;;;;29.88;17.20;;;7.80;40.90;;;;;;5020126;28;20049;-42
2022/03/11 07:25:00;;;;;;;36.40;18.20;;;7.90;40.90;;;;;;5021982;28;20301;-43
2022/03/11 07:27:28;;;;;;;34.25;17.20;;;7.90;40.70;;;;;;5022176;28;20045;-42
2022/03/11 07:29:56;;;;;;;34.53;17.83;;;7.90;40.50;;;;;;5021760;28;20046;-42
2022/03/11 07:32:26;;;;;;;30.63;16.92;;;8.00;40.40;;;;;;5022402;28;20413;-42
2022/03/11 07:34:54;;;;;;;36.00;18.10;;;8.00;40.40;;;;;;5019520;28;20056;-42
2022/03/11 07:37:21;;;;;;;32.58;18.58;;;8.00;40.40;;;;;;5022947;28;20069;-42
2022/03/11 07:39:49;;;;;;;36.90;18.88;;;8.00;40.30;;;;;;5023811;28;20489;-42
2022/03/11 07:42:17;;;;;;;33.25;18.20;;;8.10;40.30;;;;;;5020897;28;20049;-43
2022/03/11 07:44:45;;;;;;;33.65;17.48;;;8.10;40.40;;;;;;5022002;28;20060;-43
2022/03/11 07:47:12;;;;;;;33.70;17.10;;;8.10;40.10;;;;;;5020521;28;20060;-44
2022/03/11 07:49:42;;;;;;;35.63;18.15;;;8.10;40.00;;;;;;5022250;28;20064;-42
2022/03/11 07:52:15;;;;;;;36.42;18.02;;;8.20;40.10;;;;;;5024716;28;20058;-42
2022/03/11 07:54:43;;;;;;;37.78;18.52;;;8.20;40.30;;;;;;5018387;28;20525;-42
2022/03/11 07:57:10;;;;;;;33.45;17.63;;;8.20;40.20;;;;;;5021148;28;20068;-42
2022/03/11 07:59:40;;;;;;;35.72;19.08;;;8.30;40.10;;;;;;5019172;28;20494;-46
2022/03/11 08:02:08;;;;;;;34.10;18.70;;;8.30;40.10;;;;;;5021153;28;20053;-42
2022/03/11 08:04:36;;;;;;;32.58;17.90;;;8.30;40.00;;;;;;5020120;28;20425;-44
2022/03/11 08:07:09;;;;;;;32.40;18.25;;;8.30;39.80;;;;;;5020015;28;20053;-42
2022/03/11 08:09:38;;;;;;;39.43;18.40;;;8.40;39.80;;;;;;5022751;28;20056;-43
2022/03/11 08:12:06;;;;;;;33.25;17.90;;;8.40;39.80;;;;;;5021380;28;20479;-42
2022/03/11 08:14:33;;;;;;;30.90;17.58;;;8.40;39.60;;;;;;5019697;28;20414;-43
2022/03/11 08:17:01;;;;;;;33.05;17.13;;;8.50;39.70;;;;;;5018014;28;20057;-42
2022/03/11 08:19:28;;;;;;;32.63;17.23;;;8.50;39.70;;;;;;5021488;28;20485;-44
2022/03/11 08:21:56;;;;;;;37.15;16.90;;;8.50;39.50;;;;;;5021627;28;20068;-42
2022/03/11 08:24:26;;;;;;;32.70;18.10;;;8.60;39.60;;;;;;5019425;28;20049;-43
2022/03/11 08:26:54;;;;;;;33.70;17.20;;;8.60;39.40;;;;;;5022257;28;20060;-43
2022/03/11 08:29:23;;;;;;;34.20;16.50;;;8.60;39.30;;;;;;5023399;28;20065;-42
2022/03/11 08:31:51;;;;;;;33.00;17.15;;;8.60;39.30;;;;;;5020432;28;20053;-42
2022/03/11 08:34:18;;;;;;;31.02;16.77;;;8.60;39.20;;;;;;5020290;28;20049;-42
2022/03/11 08:36:46;;;;;;;30.60;16.75;;;8.70;39.20;;;;;;5022890;28;20065;-42
2022/03/11 08:39:15;;;;;;;36.42;18.00;;;8.70;39.20;;;;;;5022334;28;20509;-43
2022/03/11 08:41:44;;;;;;;36.67;17.35;;;8.70;39.00;;;;;;5018105;28;20057;-43
2022/03/11 08:44:12;;;;;;;32.85;17.83;;;8.80;39.20;;;;;;5009208;28;20049;-45
2022/03/11 08:46:40;;;;;;;32.90;18.25;;;8.80;39.00;;;;;;5016423;28;20983;-42
2022/03/11 08:49:08;;;;;;;28.73;16.30;;;8.90;39.00;;;;;;5012779;28;20085;-42
2022/03/11 08:51:35;;;;;;;32.75;16.75;;;8.90;38.90;;;;;;5017618;28;20049;-45
2022/03/11 08:54:03;;;;;;;34.17;16.75;;;9.00;39.00;;;;;;5020424;28;20048;-42
2022/03/11 08:56:31;;;;;;;33.72;17.25;;;9.00;38.80;;;;;;5021301;28;20064;-42
2022/03/11 08:59:00;;;;;;;29.15;16.63;;;9.00;38.60;;;;;;5021292;28;20724;-42
2022/03/11 09:01:28;;;;;;;30.13;16.55;;;9.00;38.50;;;;;;5019352;28;20053;-42
2022/03/11 09:03:56;;;;;;;31.33;16.95;;;9.10;38.60;;;;;;5015027;28;20448;-42
2022/03/11 09:06:24;;;;;;;31.98;17.17;;;9.10;38.60;;;;;;5020804;28;20061;-42
2022/03/11 09:08:52;;;;;;;29.80;16.30;;;9.10;38.60;;;;;;5020292;28;20064;-42
2022/03/11 09:11:19;;;;;;;34.65;16.52;;;9.20;38.60;;;;;;5018750;28;20054;-42
2022/03/11 09:13:49;;;;;;;30.58;16.85;;;9.20;38.60;;;;;;5019834;28;20054;-42
2022/03/11 09:16:18;;;;;;;33.28;16.40;;;9.20;38.20;;;;;;5021491;28;20053;-43
2022/03/11 09:18:46;;;;;;;32.33;16.67;;;9.30;38.20;;;;;;5021333;28;20080;-42
2022/03/11 09:21:13;;;;;;;30.60;17.25;;;9.30;38.20;;;;;;5020255;28;20413;-45
2022/03/11 09:23:41;;;;;;;28.98;16.13;;;9.30;37.90;;;;;;5019076;28;20050;-44
2022/03/11 09:26:09;;;;;;;32.08;16.65;;;9.40;38.00;;;;;;5018261;28;20057;-42
2022/03/11 09:28:37;;;;;;;32.92;15.85;;;9.40;37.90;;;;;;5020561;28;20811;-42
2022/03/11 09:31:08;;;;;;;30.05;15.95;;;9.40;38.10;;;;;;5019323;28;20065;-42
2022/03/11 09:33:38;;;;;;;27.50;16.08;;;9.50;38.10;;;;;;5019026;28;20053;-42
2022/03/11 09:36:07;;;;;;;29.00;15.55;;;9.50;38.10;;;;;;5020158;28;20470;-43
2022/03/11 09:38:36;;;;;;;28.92;15.35;;;9.50;38.20;;;;;;5017481;28;20049;-42
2022/03/11 09:41:05;;;;;;;30.17;16.38;;;9.60;38.10;;;;;;5018679;28;20065;-42
2022/03/11 09:43:32;;;;;;;28.83;15.77;;;9.70;38.10;;;;;;5017340;28;20517;-42
2022/03/11 09:46:00;;;;;;;27.85;15.45;;;9.70;38.60;;;;;;5018296;28;20410;-43
2022/03/11 09:48:28;;;;;;;31.13;16.23;;;9.70;37.90;;;;;;5020845;28;20514;-43
2022/03/11 09:50:59;;;;;;;27.67;15.30;;;9.80;37.80;;;;;;5017436;28;20849;-42
2022/03/11 09:53:28;;;;;;;32.63;16.27;;;9.80;37.50;;;;;;5020799;28;20073;-42
2022/03/11 09:55:55;;;;;;;26.80;15.55;;;9.90;37.70;;;;;;5016938;28;20064;-42
2022/03/11 09:58:23;;;;;;;32.65;15.93;;;9.90;37.60;;;;;;5019113;28;20053;-42
2022/03/11 10:00:50;;;;;;;26.95;14.82;;;9.90;37.30;;;;;;5021492;28;20077;-42
2022/03/11 10:03:18;;;;;;;26.92;13.75;;;10.00;37.10;;;;;;5015146;28;20060;-42
2022/03/11 10:05:47;;;;;;;24.00;14.05;;;10.00;36.90;;;;;;5016297;28;20064;-42
2022/03/11 10:08:17;;;;;;;25.55;15.10;;;10.10;37.10;;;;;;5021531;28;20049;-43
2022/03/11 10:10:45;;;;;;;26.33;14.73;;;10.10;37.00;;;;;;5017706;28;20054;-43
2022/03/11 10:13:13;;;;;;;26.98;14.77;;;10.20;37.10;;;;;;5021657;28;20405;-43
2022/03/11 10:15:42;;;;;;;33.53;15.98;;;10.20;36.70;;;;;;5017228;28;20057;-43
2022/03/11 10:18:10;;;;;;;26.77;14.23;;;10.30;36.60;;;;;;5024526;28;20994;-43
2022/03/11 10:20:38;;;;;;;27.80;13.82;;;10.30;36.50;;;;;;5019624;28;20501;-43
2022/03/11 10:23:11;;;;;;;28.00;15.02;;;10.40;36.70;;;;;;5022400;28;20053;-42
2022/03/11 10:25:40;;;;;;;31.88;15.70;;;10.40;36.90;;;;;;5023124;28;20485;-43
2022/03/11 10:28:09;;;;;;;26.02;13.90;;;10.50;36.60;;;;;;5023285;28;20057;-43
2022/03/11 10:30:39;;;;;;;29.13;13.43;;;10.50;36.70;;;;;;5021938;28;20049;-43
2022/03/11 10:33:10;;;;;;;32.42;14.07;;;10.60;37.50;;;;;;5022749;28;20498;-42
2022/03/11 10:35:40;;;;;;;27.83;14.45;;;10.60;37.00;;;;;;5021402;28;20057;-42
2022/03/11 10:38:08;;;;;;;30.65;14.65;;;10.70;36.80;;;;;;5022934;28;20426;-43
2022/03/11 10:40:40;;;;;;;25.02;13.77;;;10.70;36.80;;;;;;5020870;28;20053;-44
2022/03/11 10:43:18;;;;;;;23.25;13.35;;;10.80;36.60;;;;;;5022525;28;20478;-42
2022/03/11 10:45:48;;;;;;;29.40;14.20;;;10.80;36.50;;;;;;5021553;28;20418;-43
2022/03/11 10:48:19;;;;;;;24.13;14.32;;;10.90;36.20;;;;;;5024180;28;20632;-44
2022/03/11 10:50:46;;;;;;;29.50;13.57;;;10.90;36.30;;;;;;5024202;28;20053;-43
2022/03/11 10:53:14;;;;;;;30.58;15.05;;;10.90;36.40;;;;;;5025179;28;20512;-42
2022/03/11 10:55:43;;;;;;;26.98;14.20;;;11.00;36.10;;;;;;5024038;28;20402;-48
2022/03/11 10:58:16;;;;;;;25.33;14.55;;;11.00;35.80;;;;;;5024415;28;20064;-47
2022/03/11 11:00:45;;;;;;;25.00;14.13;;;11.10;35.90;;;;;;5025467;28;20061;-43
2022/03/11 11:03:16;;;;;;;25.90;14.77;;;11.10;35.70;;;;;;5022725;28;20049;-43
2022/03/11 11:05:43;;;;;;;25.10;14.30;;;11.20;35.50;;;;;;5023121;28;20056;-43
2022/03/11 11:08:11;;;;;;;24.20;14.00;;;11.20;35.50;;;;;;5024030;28;20056;-44
2022/03/11 11:10:40;;;;;;;29.00;14.43;;;11.20;35.20;;;;;;5024688;28;20502;-43
2022/03/11 11:13:11;;;;;;;28.30;15.00;;;11.20;35.00;;;;;;5024105;28;20060;-42
2022/03/11 11:15:40;;;;;;;29.25;14.55;;;11.30;34.90;;;;;;5004497;28;20053;-43
2022/03/11 11:18:13;;;;;;;24.35;13.60;;;11.30;34.80;;;;;;5024152;28;20061;-43
2022/03/11 11:20:47;;;;;;;25.17;13.90;;;11.30;35.10;;;;;;5024700;28;20053;-42
2022/03/11 11:23:16;;;;;;;23.02;13.57;;;11.40;35.00;;;;;;5023729;28;20068;-42
2022/03/11 11:25:44;;;;;;;26.42;13.63;;;11.40;34.60;;;;;;5023258;28;20063;-42
2022/03/11 11:28:16;;;;;;;25.55;14.38;;;11.40;34.60;;;;;;5023157;28;20505;-47
2022/03/11 11:30:46;;;;;;;25.27;13.40;;;11.50;34.70;;;;;;5024061;28;20065;-42
2022/03/11 11:33:15;;;;;;;28.15;14.57;;;11.50;34.70;;;;;;5021977;28;20387;-43
2022/03/11 11:35:44;;;;;;;23.27;13.48;;;11.50;34.30;;;;;;5021645;28;20049;-43
2022/03/11 11:38:32;;;;;;;23.10;13.63;;;11.50;34.60;;;;;;5023268;28;20060;-47
2022/03/11 11:41:02;;;;;;;23.80;13.27;;;11.60;34.50;;;;;;5021850;28;20057;-43
2022/03/11 11:43:31;;;;;;;26.42;14.57;;;11.60;34.30;;;;;;5021574;28;20053;-42
2022/03/11 11:46:12;;;;;;;26.60;14.57;;;11.60;34.50;;;;;;5021385;28;20117;-43
2022/03/11 11:49:00;;;;;;;23.85;13.70;;;11.60;34.60;;;;;;5022977;28;20069;-43
2022/03/11 11:51:59;;;;;;;25.63;14.38;;;11.70;34.40;;;;;;5024201;28;20509;-42
2022/03/11 11:54:41;;;;;;;26.98;14.48;;;11.70;35.00;;;;;;5023041;28;20061;-42
2022/03/11 11:57:16;;;;;;;24.98;13.75;;;11.70;35.00;;;;;;5023174;28;20053;-43
2022/03/11 11:59:46;;;;;;;25.63;14.00;;;11.80;34.60;;;;;;5021577;28;20076;-43
2022/03/11 12:02:30;;;;;;;27.73;14.63;;;11.80;34.70;;;;;;5022884;28;20049;-42
2022/03/11 12:05:00;;;;;;;24.40;13.25;;;11.80;34.40;;;;;;5019870;28;20050;-42
2022/03/11 12:07:49;;;;;;;25.63;14.20;;;11.90;34.40;;;;;;5022072;28;20057;-43
2022/03/11 12:10:25;;;;;;;24.42;14.23;;;11.90;34.30;;;;;;5023779;28;20057;-43
2022/03/11 12:13:00;;;;;;;24.23;13.52;;;12.00;34.90;;;;;;5023414;28;20052;-42
2022/03/11 12:15:32;;;;;;;24.42;13.70;;;12.00;35.00;;;;;;5022293;28;20516;-42
2022/03/11 12:18:00;;;;;;;26.58;14.82;;;12.10;35.00;;;;;;5022973;28;20054;-43
2022/03/11 12:20:33;;;;;;;24.77;13.77;;;12.10;35.20;;;;;;5021936;28;20061;-42
2022/03/11 12:23:03;;;;;;;28.00;14.55;;;12.10;35.20;;;;;;5021640;28;20050;-43
2022/03/11 12:25:32;;;;;;;22.83;13.02;;;12.10;35.10;;;;;;5022253;28;20490;-43
2022/03/11 12:28:02;;;;;;;25.02;14.43;;;12.20;35.10;;;;;;5023788;28;20054;-42
2022/03/11 12:30:32;;;;;;;25.52;14.93;;;12.20;34.90;;;;;;5021236;28;20053;-42
2022/03/11 12:33:04;;;;;;;23.85;14.23;;;12.20;35.00;;;;;;5022212;28;20411;-42
2022/03/11 12:35:33;;;;;;;30.55;15.70;;;12.20;35.00;;;;;;5020978;28;20405;-45
2022/03/11 12:38:02;;;;;;;24.23;14.93;;;12.30;35.20;;;;;;5022827;28;20498;-42
2022/03/11 12:40:31;;;;;;;27.83;15.73;;;12.30;35.10;;;;;;5022359;28;20057;-43
2022/03/11 12:43:00;;;;;;;27.02;15.30;;;12.30;34.90;;;;;;5021890;28;20095;-46
2022/03/11 12:45:33;;;;;;;28.88;14.82;;;12.30;34.80;;;;;;5021123;28;20057;-44